createdAt,value
2022-10-17T00:01:13.283Z,10.2
2022-10-17T00:03:43.989Z,10.2
2022-10-17T00:06:24.635Z,10.3
2022-10-17T00:08:55.206Z,10.4
2022-10-17T00:11:35.803Z,10.4
2022-10-17T00:14:06.404Z,10.2
2022-10-17T00:16:37.003Z,10.2
2022-10-17T00:19:07.595Z,10.1
2022-10-17T00:21:48.224Z,10.2
2022-10-17T00:24:18.787Z,10.1
2022-10-17T00:26:49.441Z,10.2
2022-10-17T00:29:20.030Z,10.3
2022-10-17T00:31:50.636Z,10.2
2022-10-17T00:37:01.434Z,10.1
2022-10-17T00:39:32.035Z,9.9
2022-10-17T00:42:02.629Z,9.7
2022-10-17T00:44:33.211Z,9.6
2022-10-17T00:47:03.805Z,9.8
2022-10-17T00:49:44.410Z,10.0
2022-10-17T00:52:15.115Z,9.8
2022-10-17T00:54:46.221Z,9.4
2022-10-17T00:57:16.813Z,9.3
2022-10-17T00:59:47.414Z,9.1
2022-10-17T01:02:18.002Z,8.9
2022-10-17T01:04:59.233Z,8.8
2022-10-17T01:07:32.001Z,8.8
2022-10-17T01:09:55.437Z,8.8
2022-10-17T01:12:26.274Z,8.7
2022-10-17T01:17:27.397Z,8.6
2022-10-17T01:20:08.003Z,8.6
2022-10-17T01:22:38.597Z,8.6
2022-10-17T01:25:09.161Z,8.6
2022-10-17T01:27:39.751Z,8.6
2022-10-17T01:30:10.358Z,8.8
2022-10-17T01:32:40.939Z,8.9
2022-10-17T01:35:21.547Z,8.8
2022-10-17T01:38:02.170Z,8.7
2022-10-17T01:40:32.757Z,8.7
2022-10-17T01:43:03.324Z,8.7
2022-10-17T01:45:33.932Z,8.6
2022-10-17T01:48:04.505Z,8.5
2022-10-17T01:50:45.113Z,8.4
2022-10-17T01:53:15.727Z,8.3
2022-10-17T01:58:16.453Z,8.1
2022-10-17T02:00:47.047Z,8.1
2022-10-17T02:03:27.860Z,8.2
2022-10-17T02:05:58.477Z,8.0
2022-10-17T02:08:29.052Z,8.0
2022-10-17T02:10:59.662Z,7.9
2022-10-17T02:13:30.261Z,7.9
2022-10-17T02:16:00.875Z,8.0
2022-10-17T02:18:41.468Z,8.0
2022-10-17T02:21:12.130Z,8.0
2022-10-17T02:23:42.732Z,8.0
2022-10-17T02:26:13.327Z,7.9
2022-10-17T02:28:43.965Z,7.9
2022-10-17T02:31:14.767Z,8.0
2022-10-17T02:33:55.338Z,7.9
2022-10-17T02:38:56.102Z,7.8
2022-10-17T02:41:26.705Z,7.6
2022-10-17T02:43:58.786Z,7.6
2022-10-17T02:46:32.186Z,7.6
2022-10-17T02:49:12.794Z,7.7
2022-10-17T02:51:43.406Z,8.1
2022-10-17T02:54:14.013Z,8.1
2022-10-17T02:56:44.589Z,8.6
2022-10-17T02:59:15.148Z,9.1
2022-10-17T03:01:55.881Z,9.2
2022-10-17T03:04:26.483Z,9.2
2022-10-17T03:06:57.097Z,9.1
2022-10-17T03:09:27.657Z,8.8
2022-10-17T03:11:58.282Z,8.7
2022-10-17T03:14:28.989Z,8.6
2022-10-17T03:19:39.744Z,8.3
2022-10-17T03:22:10.358Z,8.2
2022-10-17T03:24:41.485Z,8.3
2022-10-17T03:27:12.082Z,8.4
2022-10-17T03:29:43.131Z,8.3
2022-10-17T03:32:23.712Z,8.4
2022-10-17T03:34:54.283Z,8.7
2022-10-17T03:37:25.304Z,8.6
2022-10-17T03:39:55.909Z,8.7
2022-10-17T03:42:26.513Z,9.1
2022-10-17T03:44:57.097Z,9.2
2022-10-17T03:47:37.633Z,9.2
2022-10-17T03:50:08.237Z,9.2
2022-10-17T03:52:38.822Z,9.6
2022-10-17T03:55:09.423Z,9.8
2022-10-17T04:00:10.157Z,10.1
2022-10-17T04:02:50.767Z,10.0
2022-10-17T04:05:26.720Z,10.0
2022-10-17T04:07:58.649Z,10.0
2022-10-17T04:10:21.643Z,9.9
2022-10-17T04:15:32.395Z,9.8
2022-10-17T04:18:02.985Z,9.8
2022-10-17T04:20:33.578Z,9.8
2022-10-17T04:23:04.161Z,9.8
2022-10-17T04:25:36.050Z,9.8
2022-10-17T04:28:07.395Z,9.6
2022-10-17T04:30:49.954Z,9.3
2022-10-17T04:33:22.691Z,9.1
2022-10-17T04:35:53.285Z,9.0
2022-10-17T04:40:54.035Z,8.8
2022-10-17T04:43:24.618Z,8.8
2022-10-17T04:46:00.422Z,9.0
2022-10-17T04:48:31.001Z,9.1
2022-10-17T04:51:01.621Z,9.1
2022-10-17T04:53:36.168Z,9.1
2022-10-17T04:56:06.754Z,9.1
2022-10-17T04:58:37.326Z,9.1
2022-10-17T05:01:17.989Z,8.9
2022-10-17T05:03:48.716Z,8.5
2022-10-17T05:06:19.333Z,8.4
2022-10-17T05:08:49.907Z,8.1
2022-10-17T05:11:20.502Z,8.4
2022-10-17T05:14:01.117Z,8.8
2022-10-17T05:16:31.731Z,9.0
2022-10-17T05:24:04.057Z,8.8
2022-10-17T05:26:34.649Z,8.5
2022-10-17T05:29:15.245Z,8.4
2022-10-17T05:31:45.830Z,8.2
2022-10-17T05:34:16.536Z,8.1
2022-10-17T05:36:47.135Z,8.2
2022-10-17T05:39:17.739Z,8.7
2022-10-17T05:41:48.352Z,9.0
2022-10-17T05:44:29.009Z,9.1
2022-10-17T05:46:59.574Z,9.0
2022-10-17T05:49:43.862Z,9.1
2022-10-17T05:52:05.616Z,9.1
2022-10-17T05:54:36.255Z,9.1
2022-10-17T05:57:06.856Z,9.3
2022-10-17T06:02:17.694Z,9.4
2022-10-17T06:04:48.925Z,9.4
2022-10-17T06:07:19.518Z,9.5
2022-10-17T06:09:50.241Z,9.5
2022-10-17T06:12:20.846Z,9.4
2022-10-17T06:15:01.909Z,9.1
2022-10-17T06:17:32.566Z,8.6
2022-10-17T06:20:03.156Z,8.4
2022-10-17T06:22:33.736Z,8.2
2022-10-17T06:25:04.332Z,8.2
2022-10-17T06:27:44.944Z,8.6
2022-10-17T06:30:15.617Z,9.3
2022-10-17T06:32:46.240Z,9.6
2022-10-17T06:35:16.813Z,9.6
2022-10-17T06:37:47.386Z,9.6
2022-10-17T06:42:58.154Z,9.8
2022-10-17T06:45:28.715Z,9.9
2022-10-17T06:47:59.392Z,9.9
2022-10-17T06:50:29.997Z,10.0
2022-10-17T06:53:00.614Z,10.0
2022-10-17T06:55:31.216Z,10.1
2022-10-17T06:58:11.813Z,10.1
2022-10-17T07:00:42.588Z,10.2
2022-10-17T07:03:15.193Z,10.3
2022-10-17T07:05:45.795Z,10.4
2022-10-17T07:08:16.382Z,10.4
2022-10-17T07:10:46.986Z,10.4
2022-10-17T07:13:27.596Z,10.5
2022-10-17T07:15:59.855Z,10.5
2022-10-17T07:18:30.459Z,10.6
2022-10-17T07:23:31.211Z,10.8
2022-10-17T07:26:11.830Z,11.0
2022-10-17T07:28:42.431Z,11.0
2022-10-17T07:31:13.270Z,11.1
2022-10-17T07:33:43.950Z,11.2
2022-10-17T07:36:14.566Z,11.2
2022-10-17T07:38:45.155Z,11.4
2022-10-17T07:41:25.765Z,11.5
2022-10-17T07:43:56.357Z,11.5
2022-10-17T07:46:26.925Z,11.6
2022-10-17T07:48:57.509Z,11.6
2022-10-17T07:51:28.117Z,11.7
2022-10-17T07:53:58.775Z,11.7
2022-10-17T07:56:39.433Z,11.7
2022-10-17T07:59:10.092Z,11.8
2022-10-17T08:04:10.821Z,11.8
2022-10-17T08:06:41.417Z,11.8
2022-10-17T08:09:19.870Z,11.8
2022-10-17T08:12:00.488Z,11.9
2022-10-17T08:14:31.078Z,12.0
2022-10-17T08:17:01.687Z,12.2
2022-10-17T08:19:32.282Z,12.2
2022-10-17T08:22:02.855Z,12.2
2022-10-17T08:24:33.417Z,12.3
2022-10-17T08:27:14.040Z,12.3
2022-10-17T08:29:44.619Z,12.4
2022-10-17T08:32:15.229Z,12.4
2022-10-17T08:34:45.809Z,12.5
2022-10-17T08:37:16.412Z,12.6
2022-10-17T08:39:57.246Z,12.7
2022-10-17T08:44:58.001Z,12.6
2022-10-17T08:47:28.892Z,12.6
2022-10-17T08:49:59.775Z,12.6
2022-10-17T08:52:30.364Z,12.5
2022-10-17T08:55:11.008Z,12.4
2022-10-17T08:57:41.627Z,12.5
2022-10-17T09:00:12.210Z,12.6
2022-10-17T09:02:42.853Z,12.7
2022-10-17T09:05:13.719Z,12.8
2022-10-17T09:10:27.312Z,12.8
2022-10-17T09:12:57.884Z,12.8
2022-10-17T09:15:28.564Z,12.8
2022-10-17T09:17:59.167Z,12.8
2022-10-17T09:20:32.244Z,13.0
2022-10-17T09:25:42.986Z,12.8
2022-10-17T09:28:13.551Z,12.9
2022-10-17T09:30:45.765Z,12.8
2022-10-17T09:33:06.777Z,12.9
2022-10-17T09:35:45.096Z,12.9
2022-10-17T09:38:25.692Z,12.9
2022-10-17T09:40:57.064Z,12.9
2022-10-17T09:48:21.900Z,13.0
2022-10-17T09:48:53.246Z,13.1
2022-10-17T09:49:27.424Z,13.1
2022-10-17T09:51:08.103Z,13.1
2022-10-17T09:53:36.642Z,13.2
2022-10-17T09:56:07.246Z,13.4
2022-10-17T09:58:37.901Z,13.4
2022-10-17T10:01:08.528Z,13.4
2022-10-17T10:06:13.564Z,13.5
2022-10-17T10:08:54.194Z,13.6
2022-10-17T10:11:24.842Z,13.6
2022-10-17T10:13:55.456Z,13.6
2022-10-17T10:16:26.060Z,13.6
2022-10-17T10:18:56.648Z,13.6
2022-10-17T10:21:28.982Z,13.7
2022-10-17T10:24:09.551Z,13.8
2022-10-17T10:26:41.542Z,14.0
2022-10-17T10:29:12.215Z,14.0
2022-10-17T10:31:42.878Z,13.9
2022-10-17T10:34:13.465Z,14.0
2022-10-17T10:36:44.066Z,14.0
2022-10-17T10:39:24.693Z,14.0
2022-10-17T10:41:55.297Z,14.0
2022-10-17T10:46:56.052Z,14.2
2022-10-17T10:49:26.636Z,14.3
2022-10-17T10:52:07.252Z,14.4
2022-10-17T10:57:08.455Z,14.4
2022-10-17T10:59:39.463Z,14.6
2022-10-17T11:02:10.052Z,14.7
2022-10-17T11:04:40.652Z,14.8
2022-10-17T11:07:21.274Z,14.8
2022-10-17T11:09:52.781Z,14.8
2022-10-17T11:12:23.362Z,14.9
2022-10-17T11:14:55.028Z,14.8
2022-10-17T11:17:25.631Z,14.9
2022-10-17T11:19:56.255Z,14.8
2022-10-17T11:27:37.168Z,15.0
2022-10-17T11:30:03.940Z,14.9
2022-10-17T11:32:34.548Z,15.1
2022-10-17T11:35:15.149Z,15.1
2022-10-17T11:37:48.350Z,15.1
2022-10-17T11:40:20.407Z,15.2
2022-10-17T11:42:54.109Z,15.2
2022-10-17T11:45:24.682Z,15.2
2022-10-17T11:47:55.269Z,15.2
2022-10-17T11:53:01.116Z,15.0
2022-10-17T11:55:31.861Z,15.1
2022-10-17T11:58:02.465Z,15.1
2022-10-17T12:00:34.163Z,15.1
2022-10-17T12:03:09.532Z,15.0
2022-10-17T12:08:20.278Z,15.0
2022-10-17T12:10:51.863Z,15.1
2022-10-17T12:13:22.453Z,15.2
2022-10-17T12:15:53.055Z,15.2
2022-10-17T12:18:17.718Z,15.2
2022-10-17T12:20:58.343Z,15.3
2022-10-17T12:23:28.913Z,15.3
2022-10-17T12:26:01.102Z,15.4
2022-10-17T12:28:33.816Z,15.5
2022-10-17T12:31:04.577Z,15.6
2022-10-17T12:33:37.732Z,15.6
2022-10-17T12:36:18.332Z,15.6
2022-10-17T12:38:49.822Z,15.6
2022-10-17T12:41:20.651Z,15.6
2022-10-17T12:48:52.101Z,16.0
2022-10-17T12:51:36.589Z,16.0
2022-10-17T12:53:58.253Z,16.2
2022-10-17T12:56:29.000Z,16.3
2022-10-17T12:58:59.575Z,16.4
2022-10-17T13:01:30.435Z,16.5
2022-10-17T13:04:11.233Z,16.5
2022-10-17T13:06:41.849Z,16.5
2022-10-17T13:09:12.447Z,16.6
2022-10-17T13:11:53.046Z,16.7
2022-10-17T13:14:23.623Z,16.7
2022-10-17T13:16:54.240Z,16.5
2022-10-17T13:19:34.923Z,16.6
2022-10-17T13:22:06.990Z,16.8
2022-10-17T13:24:28.448Z,16.8
2022-10-17T13:29:29.164Z,16.8
2022-10-17T13:31:59.787Z,16.8
2022-10-17T13:34:40.384Z,16.8
2022-10-17T13:37:10.968Z,16.9
2022-10-17T13:39:55.494Z,17.1
2022-10-17T13:42:18.633Z,17.2
2022-10-17T13:44:50.332Z,17.6
2022-10-17T13:47:20.947Z,17.6
2022-10-17T13:50:01.563Z,17.9
2022-10-17T13:52:34.893Z,18.0
2022-10-17T13:55:05.512Z,18.6
2022-10-17T13:57:28.238Z,18.6
2022-10-17T13:59:59.218Z,19.1
2022-10-17T14:02:42.257Z,19.2
2022-10-17T14:05:17.076Z,19.6
2022-10-17T14:10:18.536Z,19.1
2022-10-17T14:12:51.020Z,19.2
2022-10-17T14:15:21.758Z,19.3
2022-10-17T14:18:05.525Z,19.5
2022-10-17T14:21:08.059Z,19.7
2022-10-17T14:23:22.682Z,20.1
2022-10-17T14:25:33.690Z,19.9
2022-10-17T14:28:04.290Z,20.0
2022-10-17T14:30:52.047Z,20.0
2022-10-17T14:33:15.863Z,19.9
2022-10-17T14:35:48.863Z,20.2
2022-10-17T14:38:19.427Z,20.4
2022-10-17T14:40:50.044Z,20.4
2022-10-17T14:43:13.464Z,20.4
2022-10-17T14:45:44.088Z,20.6
2022-10-17T14:50:54.844Z,20.6
2022-10-17T14:53:25.460Z,20.7
2022-10-17T14:55:56.103Z,20.4
2022-10-17T14:58:26.757Z,20.1
2022-10-17T15:00:57.325Z,19.5
2022-10-17T15:03:37.974Z,19.3
2022-10-17T15:06:08.687Z,19.2
2022-10-17T15:08:39.350Z,18.9
2022-10-17T15:11:19.990Z,18.6
2022-10-17T15:13:50.581Z,18.4
2022-10-17T15:16:21.324Z,18.0
2022-10-17T15:19:02.000Z,17.8
2022-10-17T15:21:39.420Z,17.6
2022-10-17T15:24:01.097Z,17.4
2022-10-17T15:26:31.709Z,17.3
2022-10-17T15:31:42.648Z,17.0
2022-10-17T15:34:13.221Z,16.8
2022-10-17T15:36:43.830Z,16.7
2022-10-17T15:39:14.418Z,16.5
2022-10-17T15:41:45.004Z,16.4
2022-10-17T15:44:15.592Z,16.3
2022-10-17T15:46:56.186Z,16.1
2022-10-17T15:49:26.787Z,16.0
2022-10-17T15:51:57.384Z,15.8
2022-10-17T15:54:28.007Z,15.6
2022-10-17T15:56:58.596Z,15.6
2022-10-17T15:59:29.177Z,15.4
2022-10-17T16:02:09.747Z,15.3
2022-10-17T16:04:40.352Z,15.2
2022-10-17T16:12:11.302Z,14.8
2022-10-17T16:14:41.959Z,14.6
2022-10-17T16:17:22.575Z,14.5
2022-10-17T16:19:53.330Z,14.5
2022-10-17T16:22:23.894Z,14.4
2022-10-17T16:24:54.491Z,14.1
2022-10-17T16:27:25.091Z,13.9
2022-10-17T16:30:05.703Z,13.5
2022-10-17T16:32:36.426Z,13.4
2022-10-17T16:35:07.022Z,13.2
2022-10-17T16:37:37.608Z,12.4
2022-10-17T16:40:08.218Z,12.4
2022-10-17T16:42:38.805Z,12.2
2022-10-17T16:45:19.409Z,12.2
2022-10-17T16:47:49.971Z,12.1
2022-10-17T16:52:50.742Z,11.9
2022-10-17T16:55:21.352Z,11.9
2022-10-17T16:58:01.949Z,11.8
2022-10-17T17:00:42.570Z,11.8
2022-10-17T17:03:13.426Z,11.7
2022-10-17T17:05:44.033Z,11.6
2022-10-17T17:08:14.617Z,11.5
2022-10-17T17:10:45.212Z,11.5
2022-10-17T17:13:15.788Z,11.4
2022-10-17T17:15:56.394Z,11.2
2022-10-17T17:18:26.992Z,11.2
2022-10-17T17:20:57.594Z,11.2
2022-10-17T17:23:28.183Z,11.2
2022-10-17T17:25:58.799Z,11.2
2022-10-17T17:28:39.571Z,11.2
2022-10-17T17:33:40.686Z,11.0
2022-10-17T17:36:11.349Z,10.8
2022-10-17T17:38:41.940Z,10.8
2022-10-17T17:41:12.513Z,10.8
2022-10-17T17:43:53.100Z,10.8
2022-10-17T17:46:17.104Z,10.8
2022-10-17T17:48:47.698Z,10.7
2022-10-17T17:51:18.312Z,10.6
2022-10-17T17:53:50.063Z,10.6
2022-10-17T17:56:20.672Z,10.6
2022-10-17T17:59:01.269Z,10.5
2022-10-17T18:01:32.014Z,10.4
2022-10-17T18:04:02.856Z,10.4
2022-10-17T18:06:33.508Z,10.4
2022-10-17T18:09:04.111Z,10.4
2022-10-17T18:14:14.866Z,10.3
2022-10-17T18:16:55.474Z,10.3
2022-10-17T18:21:47.656Z,10.5
2022-10-17T18:24:18.220Z,10.4
2022-10-17T18:26:58.826Z,10.4
2022-10-17T18:29:39.446Z,10.3
2022-10-17T18:32:10.065Z,10.3
2022-10-17T18:34:41.127Z,10.4
2022-10-17T18:37:11.737Z,10.4
2022-10-17T18:39:42.407Z,10.4
2022-10-17T18:42:23.038Z,10.3
2022-10-17T18:44:53.912Z,10.3
2022-10-17T18:47:24.507Z,10.3
2022-10-17T18:49:55.083Z,10.2
2022-10-17T18:54:55.830Z,10.1
2022-10-17T18:57:36.416Z,10.0
2022-10-17T19:00:06.995Z,10.0
2022-10-17T19:02:38.009Z,9.9
2022-10-17T19:05:08.790Z,9.9
2022-10-17T19:07:39.395Z,9.9
2022-10-17T19:10:10.107Z,9.7
2022-10-17T19:12:50.698Z,9.8
2022-10-17T19:15:22.470Z,9.8
2022-10-17T19:17:45.720Z,9.7
2022-10-17T19:20:16.316Z,9.7
2022-10-17T19:22:46.949Z,9.7
2022-10-17T19:25:27.556Z,9.7
2022-10-17T19:27:58.116Z,9.7
2022-10-17T19:30:28.701Z,9.7
2022-10-17T19:35:39.412Z,9.6
2022-10-17T19:38:09.962Z,9.6
2022-10-17T19:40:50.638Z,9.5
2022-10-17T19:43:21.263Z,9.5
2022-10-17T19:45:51.874Z,9.6
2022-10-17T19:48:22.429Z,9.6
2022-10-17T19:50:53.004Z,9.6
2022-10-17T19:53:23.624Z,9.6
2022-10-17T19:56:04.237Z,9.6
2022-10-17T19:58:34.840Z,9.7
2022-10-17T20:01:05.496Z,9.7
2022-10-17T20:03:36.208Z,9.7
2022-10-17T20:06:06.813Z,9.7
2022-10-17T20:08:37.410Z,9.6
2022-10-17T20:11:18.005Z,9.6
2022-10-17T20:16:18.772Z,9.7
2022-10-17T20:18:49.352Z,9.6
2022-10-17T20:21:19.947Z,9.5
2022-10-17T20:23:50.552Z,9.4
2022-10-17T20:26:37.976Z,9.3
2022-10-17T20:28:58.795Z,9.2
2022-10-17T20:31:29.582Z,9.0
2022-10-17T20:34:00.248Z,9.0
2022-10-17T20:36:30.835Z,8.9
2022-10-17T20:39:11.451Z,8.9
2022-10-17T20:41:42.066Z,8.8
2022-10-17T20:44:12.672Z,8.8
2022-10-17T20:46:52.871Z,8.8
2022-10-17T20:49:14.430Z,8.8
2022-10-17T20:51:45.010Z,8.7
2022-10-17T20:56:56.469Z,8.6
2022-10-17T20:59:27.556Z,8.6
2022-10-17T21:01:58.208Z,8.6
2022-10-17T21:04:46.157Z,8.8
2022-10-17T21:07:07.079Z,8.9
2022-10-17T21:09:47.986Z,8.8
2022-10-17T21:12:21.497Z,8.7
2022-10-17T21:14:44.038Z,8.7
2022-10-17T21:17:14.659Z,8.6
2022-10-17T21:19:45.280Z,8.4
2022-10-17T21:22:25.887Z,8.4
2022-10-17T21:24:56.485Z,8.3
2022-10-17T21:27:27.068Z,8.3
2022-10-17T21:29:57.727Z,8.2
2022-10-17T21:32:40.169Z,8.2
2022-10-17T21:37:41.195Z,8.2
2022-10-17T21:40:11.792Z,8.2
2022-10-17T21:42:42.374Z,8.1
2022-10-17T21:45:15.486Z,8.1
2022-10-17T21:48:11.024Z,8.0
2022-10-17T21:50:11.758Z,8.1
2022-10-17T21:52:52.354Z,8.1
2022-10-17T21:55:22.981Z,8.1
2022-10-17T21:57:53.573Z,8.1
2022-10-17T22:00:24.262Z,8.2
2022-10-17T22:02:54.837Z,8.2
2022-10-17T22:05:25.450Z,8.1
2022-10-17T22:08:06.050Z,8.1
2022-10-17T22:10:36.661Z,8.0
2022-10-17T22:13:07.221Z,8.0
2022-10-17T22:18:17.949Z,8.0
2022-10-17T22:20:58.532Z,8.0
2022-10-17T22:23:29.134Z,8.0
2022-10-17T22:25:59.820Z,8.0
2022-10-17T22:28:30.434Z,8.0
2022-10-17T22:31:01.165Z,8.0
2022-10-17T22:33:31.777Z,8.0
2022-10-17T22:36:12.376Z,8.1
2022-10-17T22:38:42.956Z,8.2
2022-10-17T22:41:13.548Z,8.2
2022-10-17T22:43:44.150Z,8.4
2022-10-17T22:46:14.738Z,8.4
2022-10-17T22:48:45.305Z,8.3
2022-10-17T22:51:25.909Z,8.3
2022-10-17T22:53:56.498Z,8.4
2022-10-17T22:58:57.251Z,8.8
2022-10-17T23:04:08.148Z,8.7
2022-10-17T23:06:38.767Z,8.6
2022-10-17T23:09:09.378Z,8.5
2022-10-17T23:11:40.036Z,8.5
2022-10-17T23:14:10.634Z,8.4
2022-10-17T23:16:41.228Z,8.4
2022-10-17T23:19:21.819Z,8.4
2022-10-17T23:21:52.429Z,8.3
2022-10-17T23:24:23.021Z,8.2
2022-10-17T23:26:53.619Z,8.1
2022-10-17T23:29:24.201Z,8.0
2022-10-17T23:31:54.808Z,8.0
2022-10-17T23:34:35.396Z,8.0
2022-10-17T23:39:36.121Z,7.8
2022-10-17T23:42:06.705Z,7.8
2022-10-17T23:44:37.287Z,7.8
2022-10-17T23:47:17.898Z,7.7
2022-10-17T23:49:48.912Z,7.6
2022-10-17T23:52:19.492Z,7.6
2022-10-17T23:54:50.105Z,7.6
2022-10-17T23:57:20.753Z,7.6
2022-10-17T23:59:51.606Z,7.5
